sensor_id;sensor_type;location;lat;lon;timestamp;temperature;humidity
296;DHT22;132;48.770;9.200;2023-07-31T00:00:10;17.30;1.00
296;DHT22;132;48.770;9.200;2023-07-31T00:02:41;17.20;1.00
296;DHT22;132;48.770;9.200;2023-07-31T00:05:12;17.20;1.00
296;DHT22;132;48.770;9.200;2023-07-31T00:07:43;17.20;1.00
296;DHT22;132;48.770;9.200;2023-07-31T00:10:14;17.20;1.00
296;DHT22;132;48.770;9.200;2023-07-31T00:12:45;17.10;1.00
296;DHT22;132;48.770;9.200;2023-07-31T00:15:17;17.10;1.00
296;DHT22;132;48.770;9.200;2023-07-31T00:17:48;17.00;1.00
296;DHT22;132;48.770;9.200;2023-07-31T00:20:17;17.00;1.00
296;DHT22;132;48.770;9.200;2023-07-31T00:22:47;16.90;1.00
296;DHT22;132;48.770;9.200;2023-07-31T00:25:18;16.90;1.00
296;DHT22;132;48.770;9.200;2023-07-31T00:27:47;16.90;1.00
296;DHT22;132;48.770;9.200;2023-07-31T00:30:17;16.90;1.00
296;DHT22;132;48.770;9.200;2023-07-31T00:32:50;16.90;1.00
296;DHT22;132;48.770;9.200;2023-07-31T00:35:20;16.80;1.00
296;DHT22;132;48.770;9.200;2023-07-31T00:37:51;16.80;1.00
296;DHT22;132;48.770;9.200;2023-07-31T00:40:21;16.80;1.00
296;DHT22;132;48.770;9.200;2023-07-31T00:42:53;16.80;1.00
296;DHT22;132;48.770;9.200;2023-07-31T00:45:24;16.80;1.00
296;DHT22;132;48.770;9.200;2023-07-31T00:47:57;16.80;1.00
296;DHT22;132;48.770;9.200;2023-07-31T00:50:33;16.80;1.00
296;DHT22;132;48.770;9.200;2023-07-31T00:53:05;16.80;1.00
296;DHT22;132;48.770;9.200;2023-07-31T00:55:40;16.70;1.00
296;DHT22;132;48.770;9.200;2023-07-31T00:58:10;16.70;1.00
296;DHT22;132;48.770;9.200;2023-07-31T01:00:43;16.60;1.00
296;DHT22;132;48.770;9.200;2023-07-31T01:03:12;16.50;1.00
296;DHT22;132;48.770;9.200;2023-07-31T01:12:07;16.50;1.00
296;DHT22;132;48.770;9.200;2023-07-31T01:14:40;16.60;1.00
296;DHT22;132;48.770;9.200;2023-07-31T01:17:16;16.60;1.00
296;DHT22;132;48.770;9.200;2023-07-31T01:19:48;16.60;1.00
296;DHT22;132;48.770;9.200;2023-07-31T01:28:02;16.60;1.00
296;DHT22;132;48.770;9.200;2023-07-31T01:30:37;16.60;1.00
296;DHT22;132;48.770;9.200;2023-07-31T01:33:16;16.50;1.00
296;DHT22;132;48.770;9.200;2023-07-31T01:35:49;16.50;1.00
296;DHT22;132;48.770;9.200;2023-07-31T01:38:23;16.50;1.00
296;DHT22;132;48.770;9.200;2023-07-31T01:40:56;16.50;1.00
296;DHT22;132;48.770;9.200;2023-07-31T01:43:46;16.50;1.00
296;DHT22;132;48.770;9.200;2023-07-31T01:46:17;16.40;1.00
296;DHT22;132;48.770;9.200;2023-07-31T01:48:47;16.40;1.00
296;DHT22;132;48.770;9.200;2023-07-31T01:51:17;16.40;1.00
296;DHT22;132;48.770;9.200;2023-07-31T01:53:49;16.40;1.00
296;DHT22;132;48.770;9.200;2023-07-31T01:56:18;16.40;1.00
296;DHT22;132;48.770;9.200;2023-07-31T01:58:49;16.40;1.00
296;DHT22;132;48.770;9.200;2023-07-31T02:01:22;16.40;1.00
296;DHT22;132;48.770;9.200;2023-07-31T02:03:55;16.40;1.00
296;DHT22;132;48.770;9.200;2023-07-31T02:06:27;16.40;1.00
296;DHT22;132;48.770;9.200;2023-07-31T02:08:59;16.40;1.00
296;DHT22;132;48.770;9.200;2023-07-31T02:11:30;16.40;1.00
296;DHT22;132;48.770;9.200;2023-07-31T02:14:00;16.50;1.00
296;DHT22;132;48.770;9.200;2023-07-31T02:16:31;16.50;1.00
296;DHT22;132;48.770;9.200;2023-07-31T02:19:04;16.50;1.00
296;DHT22;132;48.770;9.200;2023-07-31T02:21:37;16.50;1.00
296;DHT22;132;48.770;9.200;2023-07-31T02:24:06;16.50;1.00
296;DHT22;132;48.770;9.200;2023-07-31T02:26:37;16.50;1.00
296;DHT22;132;48.770;9.200;2023-07-31T02:29:09;16.50;1.00
296;DHT22;132;48.770;9.200;2023-07-31T02:31:40;16.50;1.00
296;DHT22;132;48.770;9.200;2023-07-31T02:34:11;16.50;1.00
296;DHT22;132;48.770;9.200;2023-07-31T02:36:48;16.50;1.00
296;DHT22;132;48.770;9.200;2023-07-31T02:39:19;16.50;1.00
296;DHT22;132;48.770;9.200;2023-07-31T02:41:51;16.50;1.00
296;DHT22;132;48.770;9.200;2023-07-31T02:44:21;16.50;1.00
296;DHT22;132;48.770;9.200;2023-07-31T02:46:53;16.50;1.00
296;DHT22;132;48.770;9.200;2023-07-31T02:49:24;16.50;1.00
296;DHT22;132;48.770;9.200;2023-07-31T02:51:59;16.40;1.00
296;DHT22;132;48.770;9.200;2023-07-31T02:54:31;16.40;1.00
296;DHT22;132;48.770;9.200;2023-07-31T02:57:02;16.20;1.00
296;DHT22;132;48.770;9.200;2023-07-31T02:59:34;16.20;1.00
296;DHT22;132;48.770;9.200;2023-07-31T03:02:08;16.10;1.00
296;DHT22;132;48.770;9.200;2023-07-31T03:04:45;16.10;1.00
296;DHT22;132;48.770;9.200;2023-07-31T03:07:16;16.00;1.00
296;DHT22;132;48.770;9.200;2023-07-31T03:09:46;16.00;1.00
296;DHT22;132;48.770;9.200;2023-07-31T03:12:18;16.00;1.00
296;DHT22;132;48.770;9.200;2023-07-31T03:14:49;15.90;1.00
296;DHT22;132;48.770;9.200;2023-07-31T03:17:19;15.90;1.00
296;DHT22;132;48.770;9.200;2023-07-31T03:19:52;15.90;1.00
296;DHT22;132;48.770;9.200;2023-07-31T03:22:24;16.00;1.00
296;DHT22;132;48.770;9.200;2023-07-31T03:24:54;16.00;1.00
296;DHT22;132;48.770;9.200;2023-07-31T03:27:26;16.10;1.00
296;DHT22;132;48.770;9.200;2023-07-31T03:30:12;16.10;1.00
296;DHT22;132;48.770;9.200;2023-07-31T03:32:43;16.10;1.00
296;DHT22;132;48.770;9.200;2023-07-31T03:35:13;16.10;1.00
296;DHT22;132;48.770;9.200;2023-07-31T03:37:45;16.20;1.00
296;DHT22;132;48.770;9.200;2023-07-31T03:40:15;16.20;1.00
296;DHT22;132;48.770;9.200;2023-07-31T03:42:45;16.20;1.00
296;DHT22;132;48.770;9.200;2023-07-31T03:45:17;16.20;1.00
296;DHT22;132;48.770;9.200;2023-07-31T03:47:50;16.20;1.00
296;DHT22;132;48.770;9.200;2023-07-31T03:50:24;16.30;1.00
296;DHT22;132;48.770;9.200;2023-07-31T03:52:57;16.30;1.00
296;DHT22;132;48.770;9.200;2023-07-31T03:55:43;16.30;1.00
296;DHT22;132;48.770;9.200;2023-07-31T03:58:13;16.30;1.00
296;DHT22;132;48.770;9.200;2023-07-31T04:00:42;16.30;1.00
296;DHT22;132;48.770;9.200;2023-07-31T04:03:10;16.40;1.00
296;DHT22;132;48.770;9.200;2023-07-31T04:05:40;16.50;1.00
296;DHT22;132;48.770;9.200;2023-07-31T04:08:11;16.50;1.00
296;DHT22;132;48.770;9.200;2023-07-31T04:10:40;16.50;1.00
296;DHT22;132;48.770;9.200;2023-07-31T04:13:12;16.60;1.00
296;DHT22;132;48.770;9.200;2023-07-31T04:15:48;16.60;1.00
296;DHT22;132;48.770;9.200;2023-07-31T04:18:21;16.60;1.00
296;DHT22;132;48.770;9.200;2023-07-31T04:20:51;16.70;1.00
296;DHT22;132;48.770;9.200;2023-07-31T04:23:22;16.80;1.00
296;DHT22;132;48.770;9.200;2023-07-31T04:25:53;16.80;1.00
296;DHT22;132;48.770;9.200;2023-07-31T04:28:26;16.80;1.00
296;DHT22;132;48.770;9.200;2023-07-31T04:30:57;16.80;1.00
296;DHT22;132;48.770;9.200;2023-07-31T04:33:30;16.90;1.00
296;DHT22;132;48.770;9.200;2023-07-31T04:36:02;16.90;1.00
296;DHT22;132;48.770;9.200;2023-07-31T04:38:33;16.90;1.00
296;DHT22;132;48.770;9.200;2023-07-31T04:41:04;17.00;1.00
296;DHT22;132;48.770;9.200;2023-07-31T04:43:36;17.00;1.00
296;DHT22;132;48.770;9.200;2023-07-31T04:46:08;17.00;1.00
296;DHT22;132;48.770;9.200;2023-07-31T04:48:38;17.00;1.00
296;DHT22;132;48.770;9.200;2023-07-31T04:51:07;17.10;1.00
296;DHT22;132;48.770;9.200;2023-07-31T04:53:38;17.10;1.00
296;DHT22;132;48.770;9.200;2023-07-31T04:56:07;17.10;1.00
296;DHT22;132;48.770;9.200;2023-07-31T04:58:37;17.20;1.00
296;DHT22;132;48.770;9.200;2023-07-31T05:01:08;17.20;1.00
296;DHT22;132;48.770;9.200;2023-07-31T05:03:43;17.20;1.00
296;DHT22;132;48.770;9.200;2023-07-31T05:06:14;17.10;1.00
296;DHT22;132;48.770;9.200;2023-07-31T05:08:45;17.10;1.00
296;DHT22;132;48.770;9.200;2023-07-31T05:11:15;17.10;1.00
296;DHT22;132;48.770;9.200;2023-07-31T05:13:45;17.10;1.00
296;DHT22;132;48.770;9.200;2023-07-31T05:16:16;17.10;1.00
296;DHT22;132;48.770;9.200;2023-07-31T05:18:48;17.10;1.00
296;DHT22;132;48.770;9.200;2023-07-31T05:21:18;17.10;1.00
296;DHT22;132;48.770;9.200;2023-07-31T05:23:51;17.10;1.00
296;DHT22;132;48.770;9.200;2023-07-31T05:26:22;17.10;1.00
296;DHT22;132;48.770;9.200;2023-07-31T05:28:55;17.10;1.00
296;DHT22;132;48.770;9.200;2023-07-31T05:31:29;17.10;1.00
296;DHT22;132;48.770;9.200;2023-07-31T05:34:04;17.10;1.00
296;DHT22;132;48.770;9.200;2023-07-31T05:36:34;17.00;1.00
296;DHT22;132;48.770;9.200;2023-07-31T05:39:04;17.10;1.00
296;DHT22;132;48.770;9.200;2023-07-31T05:41:38;17.20;1.00
296;DHT22;132;48.770;9.200;2023-07-31T05:44:09;17.30;1.00
296;DHT22;132;48.770;9.200;2023-07-31T05:46:43;17.40;1.00
296;DHT22;132;48.770;9.200;2023-07-31T05:49:15;17.40;1.00
296;DHT22;132;48.770;9.200;2023-07-31T05:51:47;17.50;1.00
296;DHT22;132;48.770;9.200;2023-07-31T05:54:18;17.60;1.00
296;DHT22;132;48.770;9.200;2023-07-31T05:57:04;17.70;1.00
296;DHT22;132;48.770;9.200;2023-07-31T05:59:35;17.70;1.00
296;DHT22;132;48.770;9.200;2023-07-31T06:02:06;17.80;1.00
296;DHT22;132;48.770;9.200;2023-07-31T06:04:38;17.90;1.00
296;DHT22;132;48.770;9.200;2023-07-31T06:07:08;17.90;1.00
296;DHT22;132;48.770;9.200;2023-07-31T06:09:38;18.00;1.00
296;DHT22;132;48.770;9.200;2023-07-31T06:12:09;18.10;1.00
296;DHT22;132;48.770;9.200;2023-07-31T06:14:40;18.30;1.00
296;DHT22;132;48.770;9.200;2023-07-31T06:17:12;18.50;1.00
296;DHT22;132;48.770;9.200;2023-07-31T06:19:42;18.80;1.00
296;DHT22;132;48.770;9.200;2023-07-31T06:22:28;19.10;1.00
296;DHT22;132;48.770;9.200;2023-07-31T06:25:00;19.30;1.00
296;DHT22;132;48.770;9.200;2023-07-31T06:27:32;19.50;1.00
296;DHT22;132;48.770;9.200;2023-07-31T06:30:02;19.70;1.00
296;DHT22;132;48.770;9.200;2023-07-31T06:32:33;20.00;1.00
296;DHT22;132;48.770;9.200;2023-07-31T06:35:04;20.40;1.00
296;DHT22;132;48.770;9.200;2023-07-31T06:37:35;20.70;1.00
296;DHT22;132;48.770;9.200;2023-07-31T06:40:09;21.00;1.00
296;DHT22;132;48.770;9.200;2023-07-31T06:42:41;20.90;1.00
296;DHT22;132;48.770;9.200;2023-07-31T06:45:12;20.90;1.00
296;DHT22;132;48.770;9.200;2023-07-31T06:47:45;20.80;1.00
296;DHT22;132;48.770;9.200;2023-07-31T06:50:20;20.90;1.00
296;DHT22;132;48.770;9.200;2023-07-31T06:52:52;21.00;1.00
296;DHT22;132;48.770;9.200;2023-07-31T06:55:25;21.20;1.00
296;DHT22;132;48.770;9.200;2023-07-31T06:57:59;21.20;1.00
296;DHT22;132;48.770;9.200;2023-07-31T07:00:30;21.30;1.00
296;DHT22;132;48.770;9.200;2023-07-31T07:03:00;21.70;1.00
296;DHT22;132;48.770;9.200;2023-07-31T07:05:31;21.60;1.00
296;DHT22;132;48.770;9.200;2023-07-31T07:08:04;21.50;1.00
296;DHT22;132;48.770;9.200;2023-07-31T07:10:37;21.40;1.00
296;DHT22;132;48.770;9.200;2023-07-31T07:13:08;21.30;1.00
296;DHT22;132;48.770;9.200;2023-07-31T07:15:40;21.40;1.00
296;DHT22;132;48.770;9.200;2023-07-31T07:18:11;21.40;1.00
296;DHT22;132;48.770;9.200;2023-07-31T07:20:50;21.40;1.00
296;DHT22;132;48.770;9.200;2023-07-31T07:23:20;21.50;1.00
296;DHT22;132;48.770;9.200;2023-07-31T07:25:52;21.50;1.00
296;DHT22;132;48.770;9.200;2023-07-31T07:28:25;21.70;1.00
296;DHT22;132;48.770;9.200;2023-07-31T07:30:56;22.40;1.00
296;DHT22;132;48.770;9.200;2023-07-31T07:33:30;22.80;1.00
296;DHT22;132;48.770;9.200;2023-07-31T07:36:02;22.80;1.00
296;DHT22;132;48.770;9.200;2023-07-31T07:38:33;22.70;1.00
296;DHT22;132;48.770;9.200;2023-07-31T07:41:06;22.50;1.00
296;DHT22;132;48.770;9.200;2023-07-31T07:43:44;22.50;1.00
296;DHT22;132;48.770;9.200;2023-07-31T07:46:14;22.40;1.00
296;DHT22;132;48.770;9.200;2023-07-31T07:48:44;22.40;1.00
296;DHT22;132;48.770;9.200;2023-07-31T07:51:13;22.90;1.00
296;DHT22;132;48.770;9.200;2023-07-31T07:53:42;23.00;1.00
296;DHT22;132;48.770;9.200;2023-07-31T07:56:17;23.40;1.00
296;DHT22;132;48.770;9.200;2023-07-31T07:58:49;23.70;1.00
296;DHT22;132;48.770;9.200;2023-07-31T08:01:18;24.30;1.00
296;DHT22;132;48.770;9.200;2023-07-31T08:03:48;24.80;1.00
296;DHT22;132;48.770;9.200;2023-07-31T08:06:17;24.80;1.00
296;DHT22;132;48.770;9.200;2023-07-31T08:08:47;24.90;1.00
296;DHT22;132;48.770;9.200;2023-07-31T08:11:23;25.10;1.00
296;DHT22;132;48.770;9.200;2023-07-31T08:13:53;25.60;1.00
296;DHT22;132;48.770;9.200;2023-07-31T08:16:24;25.70;1.00
296;DHT22;132;48.770;9.200;2023-07-31T08:18:55;25.60;1.00
296;DHT22;132;48.770;9.200;2023-07-31T08:21:25;26.20;1.00
296;DHT22;132;48.770;9.200;2023-07-31T08:23:56;26.30;1.00
296;DHT22;132;48.770;9.200;2023-07-31T08:26:27;26.60;1.00
296;DHT22;132;48.770;9.200;2023-07-31T08:29:00;26.70;1.00
296;DHT22;132;48.770;9.200;2023-07-31T08:31:33;27.00;1.00
296;DHT22;132;48.770;9.200;2023-07-31T08:34:04;27.10;1.00
296;DHT22;132;48.770;9.200;2023-07-31T08:36:50;27.10;1.00
296;DHT22;132;48.770;9.200;2023-07-31T08:39:20;27.00;1.00
296;DHT22;132;48.770;9.200;2023-07-31T08:41:58;27.00;1.00
296;DHT22;132;48.770;9.200;2023-07-31T08:44:29;27.10;1.00
296;DHT22;132;48.770;9.200;2023-07-31T08:47:02;27.10;1.00
296;DHT22;132;48.770;9.200;2023-07-31T08:49:34;27.00;1.00
296;DHT22;132;48.770;9.200;2023-07-31T08:52:06;27.00;1.00
296;DHT22;132;48.770;9.200;2023-07-31T08:54:37;26.50;1.00
296;DHT22;132;48.770;9.200;2023-07-31T08:57:09;25.90;1.00
296;DHT22;132;48.770;9.200;2023-07-31T08:59:43;25.20;1.00
296;DHT22;132;48.770;9.200;2023-07-31T09:02:37;25.10;1.00
296;DHT22;132;48.770;9.200;2023-07-31T09:05:11;25.00;1.00
296;DHT22;132;48.770;9.200;2023-07-31T09:07:43;24.60;1.00
296;DHT22;132;48.770;9.200;2023-07-31T09:10:19;24.60;1.00
296;DHT22;132;48.770;9.200;2023-07-31T09:12:51;24.90;1.00
296;DHT22;132;48.770;9.200;2023-07-31T09:15:21;24.90;1.00
296;DHT22;132;48.770;9.200;2023-07-31T09:18:00;25.70;1.00
296;DHT22;132;48.770;9.200;2023-07-31T09:20:35;26.10;1.00
296;DHT22;132;48.770;9.200;2023-07-31T09:23:14;26.30;1.00
296;DHT22;132;48.770;9.200;2023-07-31T09:25:48;25.90;1.00
296;DHT22;132;48.770;9.200;2023-07-31T09:28:31;26.20;1.00
296;DHT22;132;48.770;9.200;2023-07-31T09:31:07;26.40;1.00
296;DHT22;132;48.770;9.200;2023-07-31T09:33:54;26.20;1.00
296;DHT22;132;48.770;9.200;2023-07-31T09:36:29;25.90;1.00
296;DHT22;132;48.770;9.200;2023-07-31T09:39:02;25.70;1.00
296;DHT22;132;48.770;9.200;2023-07-31T09:41:44;24.90;1.00
296;DHT22;132;48.770;9.200;2023-07-31T09:44:16;24.40;1.00
296;DHT22;132;48.770;9.200;2023-07-31T09:46:49;23.80;1.00
296;DHT22;132;48.770;9.200;2023-07-31T09:49:25;23.40;1.00
296;DHT22;132;48.770;9.200;2023-07-31T09:51:56;23.20;1.00
296;DHT22;132;48.770;9.200;2023-07-31T09:54:26;23.90;1.00
296;DHT22;132;48.770;9.200;2023-07-31T09:57:07;24.70;1.00
296;DHT22;132;48.770;9.200;2023-07-31T09:59:36;25.60;1.00
296;DHT22;132;48.770;9.200;2023-07-31T10:02:08;26.00;1.00
296;DHT22;132;48.770;9.200;2023-07-31T10:04:40;26.50;1.00
296;DHT22;132;48.770;9.200;2023-07-31T10:07:11;26.40;1.00
296;DHT22;132;48.770;9.200;2023-07-31T10:09:42;25.50;1.00
296;DHT22;132;48.770;9.200;2023-07-31T10:12:29;25.40;1.00
296;DHT22;132;48.770;9.200;2023-07-31T10:15:05;25.90;1.00
296;DHT22;132;48.770;9.200;2023-07-31T10:17:36;26.50;1.00
296;DHT22;132;48.770;9.200;2023-07-31T10:20:06;27.20;1.00
296;DHT22;132;48.770;9.200;2023-07-31T10:22:36;27.10;1.00
296;DHT22;132;48.770;9.200;2023-07-31T10:25:08;27.70;1.00
296;DHT22;132;48.770;9.200;2023-07-31T10:27:39;27.70;1.00
296;DHT22;132;48.770;9.200;2023-07-31T10:30:12;28.20;1.00
296;DHT22;132;48.770;9.200;2023-07-31T10:32:44;28.20;1.00
296;DHT22;132;48.770;9.200;2023-07-31T10:35:15;27.70;1.00
296;DHT22;132;48.770;9.200;2023-07-31T10:37:44;27.40;1.00
296;DHT22;132;48.770;9.200;2023-07-31T10:40:23;27.00;1.00
296;DHT22;132;48.770;9.200;2023-07-31T10:42:55;26.90;1.00
296;DHT22;132;48.770;9.200;2023-07-31T10:48:14;28.20;1.00
296;DHT22;132;48.770;9.200;2023-07-31T10:50:51;28.30;1.00
296;DHT22;132;48.770;9.200;2023-07-31T10:56:07;27.50;1.00
296;DHT22;132;48.770;9.200;2023-07-31T10:58:37;27.20;1.00
296;DHT22;132;48.770;9.200;2023-07-31T11:01:06;26.90;1.00
296;DHT22;132;48.770;9.200;2023-07-31T11:03:47;27.30;1.00
296;DHT22;132;48.770;9.200;2023-07-31T11:06:18;28.50;1.00
296;DHT22;132;48.770;9.200;2023-07-31T11:08:51;28.80;1.00
296;DHT22;132;48.770;9.200;2023-07-31T11:11:21;28.60;1.00
296;DHT22;132;48.770;9.200;2023-07-31T11:13:53;28.30;1.00
296;DHT22;132;48.770;9.200;2023-07-31T11:16:25;27.90;1.00
296;DHT22;132;48.770;9.200;2023-07-31T11:18:55;26.90;1.00
296;DHT22;132;48.770;9.200;2023-07-31T11:21:26;26.30;1.00
296;DHT22;132;48.770;9.200;2023-07-31T11:23:58;25.50;1.00
296;DHT22;132;48.770;9.200;2023-07-31T11:26:30;25.10;1.00
296;DHT22;132;48.770;9.200;2023-07-31T11:29:11;24.70;1.00
296;DHT22;132;48.770;9.200;2023-07-31T11:31:45;24.60;1.00
296;DHT22;132;48.770;9.200;2023-07-31T11:34:19;24.20;1.00
296;DHT22;132;48.770;9.200;2023-07-31T11:36:55;24.10;1.00
296;DHT22;132;48.770;9.200;2023-07-31T11:39:25;23.70;1.00
296;DHT22;132;48.770;9.200;2023-07-31T11:41:59;23.50;1.00
296;DHT22;132;48.770;9.200;2023-07-31T11:44:40;23.50;1.00
296;DHT22;132;48.770;9.200;2023-07-31T11:47:16;23.60;1.00
296;DHT22;132;48.770;9.200;2023-07-31T11:49:49;23.70;1.00
296;DHT22;132;48.770;9.200;2023-07-31T11:52:40;23.90;1.00
296;DHT22;132;48.770;9.200;2023-07-31T11:55:11;24.00;1.00
296;DHT22;132;48.770;9.200;2023-07-31T11:57:41;24.30;1.00
296;DHT22;132;48.770;9.200;2023-07-31T12:00:13;24.50;1.00
296;DHT22;132;48.770;9.200;2023-07-31T12:02:43;24.50;1.00
296;DHT22;132;48.770;9.200;2023-07-31T12:05:13;24.20;1.00
296;DHT22;132;48.770;9.200;2023-07-31T12:07:45;23.90;1.00
296;DHT22;132;48.770;9.200;2023-07-31T12:13:03;24.00;1.00
296;DHT22;132;48.770;9.200;2023-07-31T12:15:41;24.10;1.00
296;DHT22;132;48.770;9.200;2023-07-31T12:18:14;24.30;1.00
296;DHT22;132;48.770;9.200;2023-07-31T12:20:58;24.30;1.00
296;DHT22;132;48.770;9.200;2023-07-31T12:23:31;24.40;1.00
296;DHT22;132;48.770;9.200;2023-07-31T12:28:41;24.10;1.00
296;DHT22;132;48.770;9.200;2023-07-31T12:31:22;24.00;1.00
296;DHT22;132;48.770;9.200;2023-07-31T12:33:55;24.00;1.00
296;DHT22;132;48.770;9.200;2023-07-31T12:36:27;23.90;1.00
296;DHT22;132;48.770;9.200;2023-07-31T12:38:59;23.80;1.00
296;DHT22;132;48.770;9.200;2023-07-31T12:41:31;23.70;1.00
296;DHT22;132;48.770;9.200;2023-07-31T12:44:01;23.50;1.00
296;DHT22;132;48.770;9.200;2023-07-31T12:46:35;23.50;1.00
296;DHT22;132;48.770;9.200;2023-07-31T12:49:06;23.20;1.00
296;DHT22;132;48.770;9.200;2023-07-31T12:51:39;23.10;1.00
296;DHT22;132;48.770;9.200;2023-07-31T12:54:11;23.00;1.00
296;DHT22;132;48.770;9.200;2023-07-31T12:56:57;22.90;1.00
296;DHT22;132;48.770;9.200;2023-07-31T12:59:30;22.90;1.00
296;DHT22;132;48.770;9.200;2023-07-31T13:01:59;23.00;1.00
296;DHT22;132;48.770;9.200;2023-07-31T13:04:28;23.00;1.00
296;DHT22;132;48.770;9.200;2023-07-31T13:06:57;23.10;1.00
296;DHT22;132;48.770;9.200;2023-07-31T13:09:33;23.20;1.00
296;DHT22;132;48.770;9.200;2023-07-31T13:12:04;23.20;1.00
296;DHT22;132;48.770;9.200;2023-07-31T13:14:35;23.30;1.00
296;DHT22;132;48.770;9.200;2023-07-31T13:17:06;23.40;1.00
296;DHT22;132;48.770;9.200;2023-07-31T13:19:36;23.50;1.00
296;DHT22;132;48.770;9.200;2023-07-31T13:22:07;23.60;1.00
296;DHT22;132;48.770;9.200;2023-07-31T13:24:38;23.70;1.00
296;DHT22;132;48.770;9.200;2023-07-31T13:27:11;23.90;1.00
296;DHT22;132;48.770;9.200;2023-07-31T13:29:43;23.90;1.00
296;DHT22;132;48.770;9.200;2023-07-31T13:32:17;24.00;1.00
296;DHT22;132;48.770;9.200;2023-07-31T13:34:49;24.10;1.00
296;DHT22;132;48.770;9.200;2023-07-31T13:37:35;24.30;1.00
296;DHT22;132;48.770;9.200;2023-07-31T13:40:11;24.50;1.00
296;DHT22;132;48.770;9.200;2023-07-31T13:42:40;24.60;1.00
296;DHT22;132;48.770;9.200;2023-07-31T13:45:09;24.80;1.00
296;DHT22;132;48.770;9.200;2023-07-31T13:47:39;24.80;1.00
296;DHT22;132;48.770;9.200;2023-07-31T13:50:08;24.90;1.00
296;DHT22;132;48.770;9.200;2023-07-31T13:52:40;24.90;1.00
296;DHT22;132;48.770;9.200;2023-07-31T13:55:10;25.00;1.00
296;DHT22;132;48.770;9.200;2023-07-31T13:57:39;24.80;1.00
296;DHT22;132;48.770;9.200;2023-07-31T14:00:08;24.80;1.00
296;DHT22;132;48.770;9.200;2023-07-31T14:02:37;24.80;1.00
296;DHT22;132;48.770;9.200;2023-07-31T14:05:10;24.70;1.00
296;DHT22;132;48.770;9.200;2023-07-31T14:07:39;24.60;1.00
296;DHT22;132;48.770;9.200;2023-07-31T14:10:10;24.70;1.00
296;DHT22;132;48.770;9.200;2023-07-31T14:12:42;24.60;1.00
296;DHT22;132;48.770;9.200;2023-07-31T14:15:13;24.50;1.00
296;DHT22;132;48.770;9.200;2023-07-31T14:17:43;24.40;1.00
296;DHT22;132;48.770;9.200;2023-07-31T14:20:14;24.20;1.00
296;DHT22;132;48.770;9.200;2023-07-31T14:22:45;24.10;1.00
296;DHT22;132;48.770;9.200;2023-07-31T14:25:16;24.00;1.00
296;DHT22;132;48.770;9.200;2023-07-31T14:27:45;23.80;1.00
296;DHT22;132;48.770;9.200;2023-07-31T14:30:16;23.80;1.00
296;DHT22;132;48.770;9.200;2023-07-31T14:32:49;23.70;1.00
296;DHT22;132;48.770;9.200;2023-07-31T14:35:19;23.90;1.00
296;DHT22;132;48.770;9.200;2023-07-31T14:37:50;23.90;1.00
296;DHT22;132;48.770;9.200;2023-07-31T14:40:20;24.00;1.00
296;DHT22;132;48.770;9.200;2023-07-31T14:42:52;23.90;1.00
296;DHT22;132;48.770;9.200;2023-07-31T14:45:24;23.90;1.00
296;DHT22;132;48.770;9.200;2023-07-31T14:47:56;23.90;1.00
296;DHT22;132;48.770;9.200;2023-07-31T14:50:27;24.00;1.00
296;DHT22;132;48.770;9.200;2023-07-31T14:52:58;24.20;1.00
296;DHT22;132;48.770;9.200;2023-07-31T14:55:30;24.20;1.00
296;DHT22;132;48.770;9.200;2023-07-31T14:58:00;24.40;1.00
296;DHT22;132;48.770;9.200;2023-07-31T15:00:46;24.50;1.00
296;DHT22;132;48.770;9.200;2023-07-31T15:03:19;24.50;1.00
296;DHT22;132;48.770;9.200;2023-07-31T15:05:50;24.50;1.00
296;DHT22;132;48.770;9.200;2023-07-31T15:08:22;24.60;1.00
296;DHT22;132;48.770;9.200;2023-07-31T15:10:54;24.50;1.00
296;DHT22;132;48.770;9.200;2023-07-31T15:13:29;24.40;1.00
296;DHT22;132;48.770;9.200;2023-07-31T15:16:01;24.40;1.00
296;DHT22;132;48.770;9.200;2023-07-31T15:18:38;24.40;1.00
296;DHT22;132;48.770;9.200;2023-07-31T15:21:11;24.40;1.00
296;DHT22;132;48.770;9.200;2023-07-31T15:23:43;24.50;1.00
296;DHT22;132;48.770;9.200;2023-07-31T15:26:15;24.50;1.00
296;DHT22;132;48.770;9.200;2023-07-31T15:29:04;24.50;1.00
296;DHT22;132;48.770;9.200;2023-07-31T15:31:38;24.60;1.00
296;DHT22;132;48.770;9.200;2023-07-31T15:34:12;24.60;1.00
296;DHT22;132;48.770;9.200;2023-07-31T15:36:44;24.60;1.00
296;DHT22;132;48.770;9.200;2023-07-31T15:39:17;24.60;1.00
296;DHT22;132;48.770;9.200;2023-07-31T15:41:49;24.60;1.00
296;DHT22;132;48.770;9.200;2023-07-31T15:44:20;24.60;1.00
296;DHT22;132;48.770;9.200;2023-07-31T15:46:54;24.60;1.00
296;DHT22;132;48.770;9.200;2023-07-31T15:49:27;24.50;1.00
296;DHT22;132;48.770;9.200;2023-07-31T15:51:57;24.50;1.00
296;DHT22;132;48.770;9.200;2023-07-31T15:54:27;24.40;1.00
296;DHT22;132;48.770;9.200;2023-07-31T15:57:00;24.40;1.00
296;DHT22;132;48.770;9.200;2023-07-31T15:59:31;24.40;1.00
296;DHT22;132;48.770;9.200;2023-07-31T16:02:02;24.30;1.00
296;DHT22;132;48.770;9.200;2023-07-31T16:04:33;24.30;1.00
296;DHT22;132;48.770;9.200;2023-07-31T16:07:04;24.40;1.00
296;DHT22;132;48.770;9.200;2023-07-31T16:09:35;24.40;1.00
296;DHT22;132;48.770;9.200;2023-07-31T16:12:06;24.30;1.00
296;DHT22;132;48.770;9.200;2023-07-31T16:14:38;24.30;1.00
296;DHT22;132;48.770;9.200;2023-07-31T16:17:09;24.20;1.00
296;DHT22;132;48.770;9.200;2023-07-31T16:19:41;24.20;1.00
296;DHT22;132;48.770;9.200;2023-07-31T16:22:21;24.10;1.00
296;DHT22;132;48.770;9.200;2023-07-31T16:24:52;24.00;1.00
296;DHT22;132;48.770;9.200;2023-07-31T16:27:24;24.00;1.00
296;DHT22;132;48.770;9.200;2023-07-31T16:29:55;24.00;1.00
296;DHT22;132;48.770;9.200;2023-07-31T16:32:29;23.90;1.00
296;DHT22;132;48.770;9.200;2023-07-31T16:35:00;23.80;1.00
296;DHT22;132;48.770;9.200;2023-07-31T16:37:33;23.80;1.00
296;DHT22;132;48.770;9.200;2023-07-31T16:40:07;23.70;1.00
296;DHT22;132;48.770;9.200;2023-07-31T16:42:38;23.70;1.00
296;DHT22;132;48.770;9.200;2023-07-31T16:45:12;23.70;1.00
296;DHT22;132;48.770;9.200;2023-07-31T16:47:46;23.70;1.00
296;DHT22;132;48.770;9.200;2023-07-31T16:50:19;23.70;1.00
296;DHT22;132;48.770;9.200;2023-07-31T16:52:51;23.60;1.00
296;DHT22;132;48.770;9.200;2023-07-31T16:55:22;23.60;1.00
296;DHT22;132;48.770;9.200;2023-07-31T16:57:54;23.60;1.00
296;DHT22;132;48.770;9.200;2023-07-31T17:00:28;23.50;1.00
296;DHT22;132;48.770;9.200;2023-07-31T17:03:02;23.40;1.00
296;DHT22;132;48.770;9.200;2023-07-31T17:05:35;23.40;1.00
296;DHT22;132;48.770;9.200;2023-07-31T17:08:09;23.30;1.00
296;DHT22;132;48.770;9.200;2023-07-31T17:10:40;23.30;1.00
296;DHT22;132;48.770;9.200;2023-07-31T17:13:11;23.20;1.00
296;DHT22;132;48.770;9.200;2023-07-31T17:15:44;23.20;1.00
296;DHT22;132;48.770;9.200;2023-07-31T17:18:22;23.10;1.00
296;DHT22;132;48.770;9.200;2023-07-31T17:20:51;23.00;1.00
296;DHT22;132;48.770;9.200;2023-07-31T17:23:20;23.00;1.00
296;DHT22;132;48.770;9.200;2023-07-31T17:25:49;23.00;1.00
296;DHT22;132;48.770;9.200;2023-07-31T17:28:18;22.90;1.00
296;DHT22;132;48.770;9.200;2023-07-31T17:31:05;22.80;1.00
296;DHT22;132;48.770;9.200;2023-07-31T17:33:34;22.80;1.00
296;DHT22;132;48.770;9.200;2023-07-31T17:36:04;22.80;1.00
296;DHT22;132;48.770;9.200;2023-07-31T17:38:33;22.80;1.00
296;DHT22;132;48.770;9.200;2023-07-31T17:41:02;22.80;1.00
296;DHT22;132;48.770;9.200;2023-07-31T17:43:32;22.70;1.00
296;DHT22;132;48.770;9.200;2023-07-31T17:46:11;22.70;1.00
296;DHT22;132;48.770;9.200;2023-07-31T17:48:43;22.70;1.00